sensor_id;sensor_type;location;lat;lon;timestamp;P1;durP1;ratioP1;P2;durP2;ratioP2
68995;SDS011;56056;48.990;12.146;2023-02-07T00:00:50;446.77;;;413.20;;
68995;SDS011;56056;48.990;12.146;2023-02-07T00:03:16;512.67;;;474.43;;
68995;SDS011;56056;48.990;12.146;2023-02-07T00:05:41;578.33;;;533.63;;
68995;SDS011;56056;48.990;12.146;2023-02-07T00:08:07;569.43;;;529.07;;
68995;SDS011;56056;48.990;12.146;2023-02-07T00:10:34;546.90;;;505.87;;
68995;SDS011;56056;48.990;12.146;2023-02-07T00:13:00;612.73;;;568.20;;
68995;SDS011;56056;48.990;12.146;2023-02-07T00:15:26;526.90;;;487.97;;
68995;SDS011;56056;48.990;12.146;2023-02-07T00:17:52;532.67;;;490.97;;
68995;SDS011;56056;48.990;12.146;2023-02-07T00:20:18;546.17;;;503.47;;
68995;SDS011;56056;48.990;12.146;2023-02-07T00:22:44;543.17;;;503.07;;
68995;SDS011;56056;48.990;12.146;2023-02-07T00:25:10;533.20;;;490.63;;
68995;SDS011;56056;48.990;12.146;2023-02-07T00:27:38;603.47;;;559.17;;
68995;SDS011;56056;48.990;12.146;2023-02-07T00:30:04;615.57;;;569.17;;
68995;SDS011;56056;48.990;12.146;2023-02-07T00:32:30;426.63;;;394.90;;
68995;SDS011;56056;48.990;12.146;2023-02-07T00:34:56;557.40;;;518.13;;
68995;SDS011;56056;48.990;12.146;2023-02-07T00:37:22;616.30;;;573.50;;
68995;SDS011;56056;48.990;12.146;2023-02-07T00:39:48;625.80;;;578.43;;
68995;SDS011;56056;48.990;12.146;2023-02-07T00:42:13;560.23;;;516.33;;
68995;SDS011;56056;48.990;12.146;2023-02-07T00:44:40;692.47;;;641.83;;
68995;SDS011;56056;48.990;12.146;2023-02-07T00:47:06;650.33;;;582.43;;
68995;SDS011;56056;48.990;12.146;2023-02-07T00:49:32;738.67;;;685.90;;
68995;SDS011;56056;48.990;12.146;2023-02-07T00:51:57;667.53;;;618.90;;
68995;SDS011;56056;48.990;12.146;2023-02-07T00:54:23;636.90;;;588.40;;
68995;SDS011;56056;48.990;12.146;2023-02-07T00:56:49;637.67;;;591.47;;
68995;SDS011;56056;48.990;12.146;2023-02-07T00:59:14;687.27;;;637.40;;
68995;SDS011;56056;48.990;12.146;2023-02-07T01:01:41;708.50;;;654.33;;
68995;SDS011;56056;48.990;12.146;2023-02-07T01:04:07;553.43;;;512.20;;
68995;SDS011;56056;48.990;12.146;2023-02-07T01:06:33;609.93;;;563.00;;
68995;SDS011;56056;48.990;12.146;2023-02-07T01:09:00;745.07;;;687.80;;
68995;SDS011;56056;48.990;12.146;2023-02-07T01:11:28;669.37;;;620.97;;
68995;SDS011;56056;48.990;12.146;2023-02-07T01:13:54;554.00;;;512.37;;
68995;SDS011;56056;48.990;12.146;2023-02-07T01:16:20;619.23;;;576.07;;
68995;SDS011;56056;48.990;12.146;2023-02-07T01:18:48;584.80;;;538.67;;
68995;SDS011;56056;48.990;12.146;2023-02-07T01:21:15;593.93;;;550.73;;
68995;SDS011;56056;48.990;12.146;2023-02-07T01:23:41;633.23;;;585.00;;
68995;SDS011;56056;48.990;12.146;2023-02-07T01:26:06;647.87;;;597.90;;
68995;SDS011;56056;48.990;12.146;2023-02-07T01:28:32;603.50;;;561.20;;
68995;SDS011;56056;48.990;12.146;2023-02-07T01:30:58;671.17;;;621.90;;
68995;SDS011;56056;48.990;12.146;2023-02-07T01:33:23;677.80;;;628.83;;
68995;SDS011;56056;48.990;12.146;2023-02-07T01:35:50;700.10;;;652.63;;
68995;SDS011;56056;48.990;12.146;2023-02-07T01:38:16;649.50;;;598.90;;
68995;SDS011;56056;48.990;12.146;2023-02-07T01:40:42;686.30;;;637.27;;
68995;SDS011;56056;48.990;12.146;2023-02-07T01:43:09;640.57;;;592.07;;
68995;SDS011;56056;48.990;12.146;2023-02-07T01:45:40;708.87;;;656.70;;
68995;SDS011;56056;48.990;12.146;2023-02-07T01:48:06;707.43;;;652.07;;
68995;SDS011;56056;48.990;12.146;2023-02-07T01:50:34;712.37;;;655.93;;
68995;SDS011;56056;48.990;12.146;2023-02-07T01:53:02;740.60;;;686.33;;
68995;SDS011;56056;48.990;12.146;2023-02-07T01:55:31;697.03;;;645.90;;
68995;SDS011;56056;48.990;12.146;2023-02-07T01:57:58;707.37;;;650.10;;
68995;SDS011;56056;48.990;12.146;2023-02-07T02:00:25;710.60;;;654.03;;
68995;SDS011;56056;48.990;12.146;2023-02-07T02:02:51;757.57;;;703.17;;
68995;SDS011;56056;48.990;12.146;2023-02-07T02:05:16;676.20;;;628.00;;
68995;SDS011;56056;48.990;12.146;2023-02-07T02:07:43;766.07;;;711.40;;
68995;SDS011;56056;48.990;12.146;2023-02-07T02:10:13;683.17;;;632.13;;
68995;SDS011;56056;48.990;12.146;2023-02-07T02:12:49;731.57;;;674.77;;
68995;SDS011;56056;48.990;12.146;2023-02-07T02:15:27;704.07;;;653.53;;
68995;SDS011;56056;48.990;12.146;2023-02-07T02:18:01;743.63;;;690.33;;
68995;SDS011;56056;48.990;12.146;2023-02-07T02:20:57;712.03;;;651.53;;
68995;SDS011;56056;48.990;12.146;2023-02-07T02:23:54;733.50;;;677.57;;
68995;SDS011;56056;48.990;12.146;2023-02-07T02:27:01;735.90;;;673.30;;
68995;SDS011;56056;48.990;12.146;2023-02-07T02:29:42;715.63;;;657.43;;
68995;SDS011;56056;48.990;12.146;2023-02-07T02:35:33;762.47;;;703.77;;
68995;SDS011;56056;48.990;12.146;2023-02-07T02:38:01;790.43;;;724.20;;
68995;SDS011;56056;48.990;12.146;2023-02-07T02:40:34;740.57;;;687.23;;
68995;SDS011;56056;48.990;12.146;2023-02-07T02:43:06;748.93;;;694.50;;
68995;SDS011;56056;48.990;12.146;2023-02-07T02:45:37;631.47;;;587.53;;
68995;SDS011;56056;48.990;12.146;2023-02-07T02:48:05;711.60;;;652.90;;
68995;SDS011;56056;48.990;12.146;2023-02-07T02:50:32;737.50;;;682.07;;
68995;SDS011;56056;48.990;12.146;2023-02-07T02:52:59;752.40;;;694.50;;
68995;SDS011;56056;48.990;12.146;2023-02-07T02:55:30;752.33;;;693.63;;
68995;SDS011;56056;48.990;12.146;2023-02-07T02:58:07;703.43;;;655.67;;
68995;SDS011;56056;48.990;12.146;2023-02-07T03:00:41;722.80;;;668.27;;
68995;SDS011;56056;48.990;12.146;2023-02-07T03:03:17;698.67;;;640.60;;
68995;SDS011;56056;48.990;12.146;2023-02-07T03:06:00;677.20;;;621.97;;
68995;SDS011;56056;48.990;12.146;2023-02-07T03:08:33;862.70;;;786.87;;
68995;SDS011;56056;48.990;12.146;2023-02-07T03:11:05;746.10;;;688.43;;
68995;SDS011;56056;48.990;12.146;2023-02-07T03:13:34;694.87;;;643.67;;
68995;SDS011;56056;48.990;12.146;2023-02-07T03:16:10;738.40;;;682.73;;
68995;SDS011;56056;48.990;12.146;2023-02-07T03:18:42;748.37;;;691.07;;
68995;SDS011;56056;48.990;12.146;2023-02-07T03:21:14;688.30;;;636.80;;
68995;SDS011;56056;48.990;12.146;2023-02-07T03:23:42;738.37;;;679.53;;
68995;SDS011;56056;48.990;12.146;2023-02-07T03:26:08;715.50;;;660.87;;
68995;SDS011;56056;48.990;12.146;2023-02-07T03:28:34;717.80;;;666.67;;
68995;SDS011;56056;48.990;12.146;2023-02-07T03:31:01;736.80;;;685.10;;
68995;SDS011;56056;48.990;12.146;2023-02-07T03:33:27;722.47;;;671.43;;
68995;SDS011;56056;48.990;12.146;2023-02-07T03:35:55;700.83;;;651.83;;
68995;SDS011;56056;48.990;12.146;2023-02-07T03:38:25;724.77;;;671.47;;
68995;SDS011;56056;48.990;12.146;2023-02-07T03:40:52;671.70;;;624.87;;
68995;SDS011;56056;48.990;12.146;2023-02-07T03:43:21;730.97;;;676.43;;
68995;SDS011;56056;48.990;12.146;2023-02-07T03:45:48;695.27;;;637.50;;
68995;SDS011;56056;48.990;12.146;2023-02-07T03:48:14;747.27;;;685.90;;
68995;SDS011;56056;48.990;12.146;2023-02-07T03:50:40;719.00;;;663.67;;
68995;SDS011;56056;48.990;12.146;2023-02-07T03:53:05;782.03;;;721.53;;
68995;SDS011;56056;48.990;12.146;2023-02-07T03:55:33;751.23;;;692.60;;
68995;SDS011;56056;48.990;12.146;2023-02-07T03:57:58;749.30;;;698.97;;
68995;SDS011;56056;48.990;12.146;2023-02-07T04:00:24;707.03;;;655.53;;
68995;SDS011;56056;48.990;12.146;2023-02-07T04:02:50;789.57;;;725.03;;
68995;SDS011;56056;48.990;12.146;2023-02-07T04:05:15;765.73;;;707.73;;
68995;SDS011;56056;48.990;12.146;2023-02-07T04:07:41;725.20;;;665.53;;
68995;SDS011;56056;48.990;12.146;2023-02-07T04:10:08;673.70;;;623.83;;
68995;SDS011;56056;48.990;12.146;2023-02-07T04:12:36;751.10;;;690.07;;
68995;SDS011;56056;48.990;12.146;2023-02-07T04:15:02;749.87;;;697.33;;
68995;SDS011;56056;48.990;12.146;2023-02-07T04:17:29;800.43;;;740.30;;
68995;SDS011;56056;48.990;12.146;2023-02-07T04:19:55;768.53;;;712.97;;
68995;SDS011;56056;48.990;12.146;2023-02-07T04:22:21;727.77;;;671.87;;
68995;SDS011;56056;48.990;12.146;2023-02-07T04:24:46;738.37;;;680.70;;
68995;SDS011;56056;48.990;12.146;2023-02-07T04:27:12;739.23;;;683.33;;
68995;SDS011;56056;48.990;12.146;2023-02-07T04:29:39;708.87;;;654.83;;
68995;SDS011;56056;48.990;12.146;2023-02-07T04:32:04;786.87;;;724.13;;
68995;SDS011;56056;48.990;12.146;2023-02-07T04:34:30;736.90;;;679.40;;
68995;SDS011;56056;48.990;12.146;2023-02-07T04:36:56;797.50;;;736.53;;
68995;SDS011;56056;48.990;12.146;2023-02-07T04:39:22;746.67;;;688.27;;
68995;SDS011;56056;48.990;12.146;2023-02-07T04:41:47;758.63;;;698.30;;
68995;SDS011;56056;48.990;12.146;2023-02-07T04:44:13;761.73;;;700.47;;
68995;SDS011;56056;48.990;12.146;2023-02-07T04:46:40;797.07;;;731.73;;
68995;SDS011;56056;48.990;12.146;2023-02-07T04:49:06;789.57;;;730.00;;
68995;SDS011;56056;48.990;12.146;2023-02-07T04:51:31;782.63;;;719.37;;
68995;SDS011;56056;48.990;12.146;2023-02-07T04:53:57;741.03;;;683.97;;
68995;SDS011;56056;48.990;12.146;2023-02-07T04:56:23;818.53;;;750.90;;
68995;SDS011;56056;48.990;12.146;2023-02-07T04:58:49;765.40;;;707.63;;
68995;SDS011;56056;48.990;12.146;2023-02-07T05:01:14;818.87;;;751.27;;
68995;SDS011;56056;48.990;12.146;2023-02-07T05:03:41;784.87;;;728.50;;
68995;SDS011;56056;48.990;12.146;2023-02-07T05:06:07;783.30;;;720.13;;
68995;SDS011;56056;48.990;12.146;2023-02-07T05:08:33;781.90;;;720.07;;
68995;SDS011;56056;48.990;12.146;2023-02-07T05:10:59;751.63;;;693.10;;
68995;SDS011;56056;48.990;12.146;2023-02-07T05:13:25;765.67;;;707.10;;
68995;SDS011;56056;48.990;12.146;2023-02-07T05:15:51;769.33;;;710.97;;
68995;SDS011;56056;48.990;12.146;2023-02-07T05:18:16;775.83;;;712.90;;
68995;SDS011;56056;48.990;12.146;2023-02-07T05:20:43;777.07;;;712.27;;
68995;SDS011;56056;48.990;12.146;2023-02-07T05:23:09;804.30;;;745.43;;
68995;SDS011;56056;48.990;12.146;2023-02-07T05:25:35;816.77;;;749.13;;
68995;SDS011;56056;48.990;12.146;2023-02-07T05:28:01;769.20;;;706.83;;
68995;SDS011;56056;48.990;12.146;2023-02-07T05:30:27;844.43;;;777.73;;
68995;SDS011;56056;48.990;12.146;2023-02-07T05:32:53;846.67;;;781.20;;
68995;SDS011;56056;48.990;12.146;2023-02-07T05:35:28;795.83;;;726.30;;
68995;SDS011;56056;48.990;12.146;2023-02-07T05:37:55;791.90;;;722.90;;
68995;SDS011;56056;48.990;12.146;2023-02-07T05:40:20;792.47;;;725.80;;
68995;SDS011;56056;48.990;12.146;2023-02-07T05:42:46;841.93;;;767.10;;
68995;SDS011;56056;48.990;12.146;2023-02-07T05:45:12;892.57;;;823.23;;
68995;SDS011;56056;48.990;12.146;2023-02-07T05:47:38;825.80;;;759.77;;
68995;SDS011;56056;48.990;12.146;2023-02-07T05:50:04;929.77;;;848.60;;
68995;SDS011;56056;48.990;12.146;2023-02-07T05:52:30;935.30;;;855.87;;
68995;SDS011;56056;48.990;12.146;2023-02-07T05:54:57;862.50;;;791.80;;
68995;SDS011;56056;48.990;12.146;2023-02-07T05:57:22;928.37;;;847.33;;
68995;SDS011;56056;48.990;12.146;2023-02-07T05:59:48;892.27;;;816.43;;
68995;SDS011;56056;48.990;12.146;2023-02-07T06:02:14;859.00;;;781.03;;
68995;SDS011;56056;48.990;12.146;2023-02-07T06:04:39;877.23;;;799.47;;
68995;SDS011;56056;48.990;12.146;2023-02-07T06:07:05;931.77;;;856.33;;
68995;SDS011;56056;48.990;12.146;2023-02-07T06:09:31;852.90;;;782.40;;
68995;SDS011;56056;48.990;12.146;2023-02-07T06:11:58;855.07;;;784.33;;
68995;SDS011;56056;48.990;12.146;2023-02-07T06:14:24;857.67;;;783.87;;
68995;SDS011;56056;48.990;12.146;2023-02-07T06:16:49;813.07;;;742.33;;
68995;SDS011;56056;48.990;12.146;2023-02-07T06:19:15;852.80;;;782.63;;
68995;SDS011;56056;48.990;12.146;2023-02-07T06:21:40;890.10;;;814.07;;
68995;SDS011;56056;48.990;12.146;2023-02-07T06:24:06;826.23;;;759.70;;
68995;SDS011;56056;48.990;12.146;2023-02-07T06:26:32;757.00;;;695.20;;
68995;SDS011;56056;48.990;12.146;2023-02-07T06:28:59;877.03;;;808.33;;
68995;SDS011;56056;48.990;12.146;2023-02-07T06:31:24;860.70;;;788.97;;
68995;SDS011;56056;48.990;12.146;2023-02-07T06:33:51;835.53;;;763.17;;
68995;SDS011;56056;48.990;12.146;2023-02-07T06:36:16;799.37;;;733.50;;
68995;SDS011;56056;48.990;12.146;2023-02-07T06:38:42;793.03;;;726.50;;
68995;SDS011;56056;48.990;12.146;2023-02-07T06:41:08;866.13;;;796.30;;
68995;SDS011;56056;48.990;12.146;2023-02-07T06:43:35;857.83;;;781.27;;
68995;SDS011;56056;48.990;12.146;2023-02-07T06:46:02;832.37;;;759.00;;
68995;SDS011;56056;48.990;12.146;2023-02-07T06:48:28;894.77;;;819.83;;
68995;SDS011;56056;48.990;12.146;2023-02-07T06:50:53;854.63;;;780.77;;
68995;SDS011;56056;48.990;12.146;2023-02-07T06:53:19;919.83;;;843.63;;
68995;SDS011;56056;48.990;12.146;2023-02-07T06:55:45;896.47;;;825.77;;
68995;SDS011;56056;48.990;12.146;2023-02-07T06:58:10;987.53;;;906.00;;
68995;SDS011;56056;48.990;12.146;2023-02-07T07:00:36;975.20;;;901.00;;
68995;SDS011;56056;48.990;12.146;2023-02-07T07:03:03;926.13;;;835.87;;
68995;SDS011;56056;48.990;12.146;2023-02-07T07:05:29;906.87;;;822.40;;
68995;SDS011;56056;48.990;12.146;2023-02-07T07:07:55;1056.53;;;964.30;;
68995;SDS011;56056;48.990;12.146;2023-02-07T07:10:21;1076.90;;;985.40;;
68995;SDS011;56056;48.990;12.146;2023-02-07T07:12:46;977.40;;;885.57;;
68995;SDS011;56056;48.990;12.146;2023-02-07T07:15:12;1069.87;;;977.90;;
68995;SDS011;56056;48.990;12.146;2023-02-07T07:17:38;930.27;;;849.43;;
68995;SDS011;56056;48.990;12.146;2023-02-07T07:20:06;1004.87;;;915.37;;
68995;SDS011;56056;48.990;12.146;2023-02-07T07:22:33;758.03;;;703.73;;
68995;SDS011;56056;48.990;12.146;2023-02-07T07:24:58;1015.20;;;926.63;;
68995;SDS011;56056;48.990;12.146;2023-02-07T07:27:24;993.43;;;912.80;;
68995;SDS011;56056;48.990;12.146;2023-02-07T07:29:50;1033.00;;;950.73;;
68995;SDS011;56056;48.990;12.146;2023-02-07T07:32:15;1031.90;;;944.90;;
68995;SDS011;56056;48.990;12.146;2023-02-07T07:34:41;885.53;;;817.97;;
68995;SDS011;56056;48.990;12.146;2023-02-07T07:37:08;892.77;;;826.47;;
68995;SDS011;56056;48.990;12.146;2023-02-07T07:39:35;839.93;;;771.53;;
68995;SDS011;56056;48.990;12.146;2023-02-07T07:42:01;243.70;;;225.97;;
68995;SDS011;56056;48.990;12.146;2023-02-07T07:44:27;17.60;;;16.17;;
68995;SDS011;56056;48.990;12.146;2023-02-07T07:46:53;106.47;;;98.53;;
68995;SDS011;56056;48.990;12.146;2023-02-07T07:49:18;48.80;;;40.00;;
68995;SDS011;56056;48.990;12.146;2023-02-07T07:51:44;61.00;;;25.43;;
68995;SDS011;56056;48.990;12.146;2023-02-07T07:54:12;32.42;;;13.13;;
68995;SDS011;56056;48.990;12.146;2023-02-07T07:56:38;25.90;;;12.32;;
68995;SDS011;56056;48.990;12.146;2023-02-07T07:59:03;9.60;;;7.43;;
68995;SDS011;56056;48.990;12.146;2023-02-07T08:01:29;16.38;;;14.02;;
68995;SDS011;56056;48.990;12.146;2023-02-07T08:03:55;12.23;;;8.65;;
68995;SDS011;56056;48.990;12.146;2023-02-07T08:06:21;6.65;;;6.00;;
68995;SDS011;56056;48.990;12.146;2023-02-07T08:08:46;6.50;;;5.85;;
68995;SDS011;56056;48.990;12.146;2023-02-07T08:11:13;31.58;;;16.92;;
68995;SDS011;56056;48.990;12.146;2023-02-07T08:13:39;41.53;;;15.23;;
68995;SDS011;56056;48.990;12.146;2023-02-07T08:16:05;28.10;;;11.82;;
68995;SDS011;56056;48.990;12.146;2023-02-07T08:18:35;41.53;;;19.02;;
68995;SDS011;56056;48.990;12.146;2023-02-07T08:21:00;11.68;;;10.57;;
68995;SDS011;56056;48.990;12.146;2023-02-07T08:23:26;30.38;;;15.77;;
68995;SDS011;56056;48.990;12.146;2023-02-07T08:25:51;38.10;;;21.65;;
68995;SDS011;56056;48.990;12.146;2023-02-07T08:28:18;7.80;;;6.25;;
68995;SDS011;56056;48.990;12.146;2023-02-07T08:30:44;32.53;;;17.48;;
68995;SDS011;56056;48.990;12.146;2023-02-07T08:33:11;33.13;;;21.77;;
68995;SDS011;56056;48.990;12.146;2023-02-07T08:35:37;36.47;;;20.10;;
68995;SDS011;56056;48.990;12.146;2023-02-07T08:38:02;29.33;;;14.57;;
68995;SDS011;56056;48.990;12.146;2023-02-07T08:40:28;137.05;;;92.60;;
68995;SDS011;56056;48.990;12.146;2023-02-07T08:42:54;33.30;;;23.30;;
68995;SDS011;56056;48.990;12.146;2023-02-07T08:45:21;17.60;;;15.85;;
68995;SDS011;56056;48.990;12.146;2023-02-07T08:47:46;11.30;;;9.52;;
68995;SDS011;56056;48.990;12.146;2023-02-07T08:50:12;11.20;;;9.18;;
68995;SDS011;56056;48.990;12.146;2023-02-07T08:52:38;47.92;;;43.70;;
68995;SDS011;56056;48.990;12.146;2023-02-07T08:55:05;37.58;;;34.20;;
68995;SDS011;56056;48.990;12.146;2023-02-07T08:57:31;136.45;;;123.47;;
68995;SDS011;56056;48.990;12.146;2023-02-07T08:59:57;417.65;;;353.77;;
68995;SDS011;56056;48.990;12.146;2023-02-07T09:02:24;863.72;;;599.22;;
68995;SDS011;56056;48.990;12.146;2023-02-07T09:04:50;1794.50;;;851.38;;
68995;SDS011;56056;48.990;12.146;2023-02-07T09:07:16;1999.90;;;973.78;;
68995;SDS011;56056;48.990;12.146;2023-02-07T09:09:43;1999.90;;;999.90;;
68995;SDS011;56056;48.990;12.146;2023-02-07T09:12:08;1999.90;;;999.90;;
68995;SDS011;56056;48.990;12.146;2023-02-07T09:14:35;1999.90;;;999.90;;
68995;SDS011;56056;48.990;12.146;2023-02-07T09:17:01;1999.90;;;999.90;;
68995;SDS011;56056;48.990;12.146;2023-02-07T09:19:28;1999.90;;;999.90;;
68995;SDS011;56056;48.990;12.146;2023-02-07T09:21:53;1999.90;;;999.90;;
68995;SDS011;56056;48.990;12.146;2023-02-07T09:24:19;1999.90;;;999.90;;
68995;SDS011;56056;48.990;12.146;2023-02-07T09:26:45;1999.90;;;999.90;;
68995;SDS011;56056;48.990;12.146;2023-02-07T09:29:11;1999.90;;;999.90;;
68995;SDS011;56056;48.990;12.146;2023-02-07T09:31:37;1999.90;;;999.90;;
68995;SDS011;56056;48.990;12.146;2023-02-07T09:34:03;1999.90;;;999.90;;
68995;SDS011;56056;48.990;12.146;2023-02-07T09:36:30;1999.90;;;999.90;;
68995;SDS011;56056;48.990;12.146;2023-02-07T09:38:57;1999.90;;;999.90;;
68995;SDS011;56056;48.990;12.146;2023-02-07T09:41:25;1999.90;;;999.90;;
68995;SDS011;56056;48.990;12.146;2023-02-07T09:43:59;1999.90;;;999.90;;
68995;SDS011;56056;48.990;12.146;2023-02-07T09:46:32;1999.90;;;999.90;;
68995;SDS011;56056;48.990;12.146;2023-02-07T09:49:01;1999.90;;;999.90;;
68995;SDS011;56056;48.990;12.146;2023-02-07T09:51:29;1999.90;;;999.90;;
68995;SDS011;56056;48.990;12.146;2023-02-07T09:53:57;1999.90;;;999.90;;
68995;SDS011;56056;48.990;12.146;2023-02-07T09:56:25;1999.90;;;999.90;;
68995;SDS011;56056;48.990;12.146;2023-02-07T09:58:52;1999.90;;;999.90;;
68995;SDS011;56056;48.990;12.146;2023-02-07T10:01:23;1999.90;;;999.90;;
68995;SDS011;56056;48.990;12.146;2023-02-07T10:03:50;1999.90;;;999.90;;
68995;SDS011;56056;48.990;12.146;2023-02-07T10:06:26;1999.90;;;999.90;;
68995;SDS011;56056;48.990;12.146;2023-02-07T10:08:54;1999.90;;;999.90;;
68995;SDS011;56056;48.990;12.146;2023-02-07T10:11:26;1999.90;;;999.90;;
68995;SDS011;56056;48.990;12.146;2023-02-07T10:14:08;1999.90;;;999.90;;
68995;SDS011;56056;48.990;12.146;2023-02-07T10:16:47;1999.90;;;999.90;;
68995;SDS011;56056;48.990;12.146;2023-02-07T10:19:25;1999.90;;;999.90;;
68995;SDS011;56056;48.990;12.146;2023-02-07T10:21:58;1999.90;;;999.90;;
68995;SDS011;56056;48.990;12.146;2023-02-07T10:24:40;1999.90;;;999.90;;
68995;SDS011;56056;48.990;12.146;2023-02-07T10:27:17;1999.90;;;999.90;;
68995;SDS011;56056;48.990;12.146;2023-02-07T10:29:50;1999.90;;;999.90;;
68995;SDS011;56056;48.990;12.146;2023-02-07T10:32:22;1999.90;;;981.75;;
68995;SDS011;56056;48.990;12.146;2023-02-07T10:34:50;1999.90;;;946.78;;
68995;SDS011;56056;48.990;12.146;2023-02-07T10:37:18;1999.90;;;999.90;;
68995;SDS011;56056;48.990;12.146;2023-02-07T10:39:49;1999.90;;;999.90;;
68995;SDS011;56056;48.990;12.146;2023-02-07T10:42:18;1999.90;;;999.90;;
68995;SDS011;56056;48.990;12.146;2023-02-07T10:44:44;1999.90;;;725.90;;
68995;SDS011;56056;48.990;12.146;2023-02-07T10:47:11;1999.90;;;999.90;;
68995;SDS011;56056;48.990;12.146;2023-02-07T10:49:40;1999.90;;;999.90;;
68995;SDS011;56056;48.990;12.146;2023-02-07T10:52:12;1999.90;;;999.90;;
68995;SDS011;56056;48.990;12.146;2023-02-07T10:54:50;1999.90;;;999.90;;
68995;SDS011;56056;48.990;12.146;2023-02-07T10:57:17;1999.90;;;999.90;;
68995;SDS011;56056;48.990;12.146;2023-02-07T10:59:44;1999.90;;;999.90;;
68995;SDS011;56056;48.990;12.146;2023-02-07T11:05:05;1999.90;;;999.90;;
68995;SDS011;56056;48.990;12.146;2023-02-07T11:07:48;1999.90;;;999.90;;
68995;SDS011;56056;48.990;12.146;2023-02-07T11:10:22;1999.90;;;999.90;;
68995;SDS011;56056;48.990;12.146;2023-02-07T11:12:49;1999.90;;;999.90;;
68995;SDS011;56056;48.990;12.146;2023-02-07T11:15:19;1999.90;;;999.90;;
68995;SDS011;56056;48.990;12.146;2023-02-07T11:17:47;1999.90;;;999.90;;
68995;SDS011;56056;48.990;12.146;2023-02-07T11:20:16;1999.90;;;999.90;;
68995;SDS011;56056;48.990;12.146;2023-02-07T11:22:45;1999.90;;;999.90;;
68995;SDS011;56056;48.990;12.146;2023-02-07T11:25:10;1999.90;;;999.90;;
68995;SDS011;56056;48.990;12.146;2023-02-07T11:27:38;1999.90;;;700.67;;
68995;SDS011;56056;48.990;12.146;2023-02-07T11:30:05;1999.90;;;999.90;;
68995;SDS011;56056;48.990;12.146;2023-02-07T11:32:32;1999.90;;;999.90;;
68995;SDS011;56056;48.990;12.146;2023-02-07T11:35:02;1999.90;;;999.90;;
68995;SDS011;56056;48.990;12.146;2023-02-07T11:37:30;1999.90;;;999.90;;
68995;SDS011;56056;48.990;12.146;2023-02-07T11:40:14;1999.90;;;999.90;;
68995;SDS011;56056;48.990;12.146;2023-02-07T11:42:48;1999.90;;;999.90;;
68995;SDS011;56056;48.990;12.146;2023-02-07T11:45:14;1999.90;;;999.90;;
68995;SDS011;56056;48.990;12.146;2023-02-07T11:47:41;1999.90;;;999.90;;
68995;SDS011;56056;48.990;12.146;2023-02-07T11:50:10;1999.90;;;999.90;;
68995;SDS011;56056;48.990;12.146;2023-02-07T11:52:47;1999.90;;;999.90;;
68995;SDS011;56056;48.990;12.146;2023-02-07T11:55:15;1999.90;;;999.90;;
68995;SDS011;56056;48.990;12.146;2023-02-07T11:57:47;1999.90;;;999.90;;
68995;SDS011;56056;48.990;12.146;2023-02-07T12:00:15;1999.90;;;999.90;;
68995;SDS011;56056;48.990;12.146;2023-02-07T12:02:44;1999.90;;;999.90;;
68995;SDS011;56056;48.990;12.146;2023-02-07T12:05:17;1999.90;;;999.90;;
68995;SDS011;56056;48.990;12.146;2023-02-07T12:07:46;1999.90;;;999.90;;
68995;SDS011;56056;48.990;12.146;2023-02-07T12:10:14;1999.90;;;999.90;;
68995;SDS011;56056;48.990;12.146;2023-02-07T12:12:45;1999.90;;;999.90;;
68995;SDS011;56056;48.990;12.146;2023-02-07T12:15:15;1999.90;;;999.90;;
68995;SDS011;56056;48.990;12.146;2023-02-07T12:17:46;1999.90;;;999.90;;
68995;SDS011;56056;48.990;12.146;2023-02-07T12:20:19;1999.90;;;999.90;;
68995;SDS011;56056;48.990;12.146;2023-02-07T12:22:49;1999.90;;;999.90;;
68995;SDS011;56056;48.990;12.146;2023-02-07T12:25:20;1999.90;;;999.90;;
68995;SDS011;56056;48.990;12.146;2023-02-07T12:27:47;1999.90;;;999.90;;
68995;SDS011;56056;48.990;12.146;2023-02-07T12:30:16;1837.72;;;729.83;;
68995;SDS011;56056;48.990;12.146;2023-02-07T12:32:48;1999.90;;;999.90;;
68995;SDS011;56056;48.990;12.146;2023-02-07T12:35:20;1999.90;;;999.90;;
68995;SDS011;56056;48.990;12.146;2023-02-07T12:37:50;1999.90;;;999.90;;
68995;SDS011;56056;48.990;12.146;2023-02-07T12:40:21;1999.90;;;999.90;;
68995;SDS011;56056;48.990;12.146;2023-02-07T12:42:53;1999.90;;;999.90;;
68995;SDS011;56056;48.990;12.146;2023-02-07T12:45:24;1999.90;;;999.90;;
68995;SDS011;56056;48.990;12.146;2023-02-07T12:47:57;1999.90;;;999.90;;
68995;SDS011;56056;48.990;12.146;2023-02-07T12:50:38;1999.90;;;999.90;;
68995;SDS011;56056;48.990;12.146;2023-02-07T12:53:17;1999.90;;;999.90;;
68995;SDS011;56056;48.990;12.146;2023-02-07T12:56:00;1999.90;;;999.90;;
68995;SDS011;56056;48.990;12.146;2023-02-07T12:58:34;1791.57;;;811.17;;
68995;SDS011;56056;48.990;12.146;2023-02-07T13:01:07;1999.90;;;999.90;;
68995;SDS011;56056;48.990;12.146;2023-02-07T13:03:42;1835.78;;;659.53;;
68995;SDS011;56056;48.990;12.146;2023-02-07T13:06:30;1793.60;;;796.78;;
68995;SDS011;56056;48.990;12.146;2023-02-07T13:09:02;1999.90;;;999.90;;
68995;SDS011;56056;48.990;12.146;2023-02-07T13:11:36;1999.90;;;999.90;;
68995;SDS011;56056;48.990;12.146;2023-02-07T13:14:11;1999.90;;;999.90;;
68995;SDS011;56056;48.990;12.146;2023-02-07T13:16:49;1996.28;;;713.00;;
68995;SDS011;56056;48.990;12.146;2023-02-07T13:19:22;1999.90;;;999.90;;
68995;SDS011;56056;48.990;12.146;2023-02-07T13:21:53;1823.47;;;635.53;;
68995;SDS011;56056;48.990;12.146;2023-02-07T13:24:24;1937.53;;;346.08;;
68995;SDS011;56056;48.990;12.146;2023-02-07T13:26:52;1999.90;;;999.90;;
68995;SDS011;56056;48.990;12.146;2023-02-07T13:29:20;1999.90;;;999.90;;
68995;SDS011;56056;48.990;12.146;2023-02-07T13:31:48;1999.90;;;902.88;;
68995;SDS011;56056;48.990;12.146;2023-02-07T13:34:15;1999.90;;;999.90;;
68995;SDS011;56056;48.990;12.146;2023-02-07T13:36:44;1999.90;;;862.88;;
68995;SDS011;56056;48.990;12.146;2023-02-07T13:39:17;1999.90;;;999.90;;
68995;SDS011;56056;48.990;12.146;2023-02-07T13:41:51;1999.90;;;999.90;;
68995;SDS011;56056;48.990;12.146;2023-02-07T13:44:25;1999.90;;;999.90;;
68995;SDS011;56056;48.990;12.146;2023-02-07T13:47:02;1999.90;;;999.90;;
68995;SDS011;56056;48.990;12.146;2023-02-07T13:49:39;1999.90;;;998.25;;
68995;SDS011;56056;48.990;12.146;2023-02-07T13:52:08;1999.90;;;999.90;;
68995;SDS011;56056;48.990;12.146;2023-02-07T13:54:38;1999.90;;;999.90;;
68995;SDS011;56056;48.990;12.146;2023-02-07T13:57:11;1999.90;;;999.90;;